createdAt,value
2023-04-16T00:00:48.657Z,24.18
2023-04-16T00:01:48.774Z,24.17
2023-04-16T00:02:48.842Z,24.19
2023-04-16T00:03:49.098Z,24.16
2023-04-16T00:04:49.037Z,24.15
2023-04-16T00:05:48.938Z,24.16
2023-04-16T00:06:48.965Z,24.17
2023-04-16T00:07:49.004Z,24.16
2023-04-16T00:08:49.051Z,24.16
2023-04-16T00:09:49.081Z,24.16
2023-04-16T00:10:49.095Z,24.16
2023-04-16T00:11:49.130Z,24.17
2023-04-16T00:12:49.143Z,24.18
2023-04-16T00:13:49.198Z,24.19
2023-04-16T00:14:49.225Z,24.19
2023-04-16T00:15:49.249Z,24.17
2023-04-16T00:16:49.327Z,24.16
2023-04-16T00:17:49.353Z,24.17
2023-04-16T00:18:49.348Z,24.17
2023-04-16T00:19:49.402Z,24.18
2023-04-16T00:20:49.463Z,24.16
2023-04-16T00:21:49.601Z,24.16
2023-04-16T00:22:49.590Z,24.16
2023-04-16T00:23:49.656Z,24.15
2023-04-16T00:24:49.664Z,24.15
2023-04-16T00:25:49.699Z,24.17
2023-04-16T00:26:49.736Z,24.17
2023-04-16T00:27:49.823Z,24.17
2023-04-16T00:28:49.855Z,24.17
2023-04-16T00:29:49.854Z,24.16
2023-04-16T00:30:49.982Z,24.17
2023-04-16T00:31:49.979Z,24.18
2023-04-16T00:32:50.075Z,24.17
2023-04-16T00:33:50.119Z,24.17
2023-04-16T00:34:50.166Z,24.19
2023-04-16T00:35:50.257Z,24.18
2023-04-16T00:36:50.283Z,24.19
2023-04-16T00:37:50.359Z,24.15
2023-04-16T00:38:50.402Z,24.17
2023-04-16T00:39:50.434Z,24.16
2023-04-16T00:40:50.472Z,24.18
2023-04-16T00:41:50.509Z,24.16
2023-04-16T00:42:50.549Z,24.17
2023-04-16T00:43:50.560Z,24.17
2023-04-16T00:44:50.612Z,24.18
2023-04-16T00:45:50.686Z,24.17
2023-04-16T00:46:50.686Z,24.18
2023-04-16T00:47:50.784Z,24.19
2023-04-16T00:48:50.777Z,24.18
2023-04-16T00:49:50.816Z,24.18
2023-04-16T00:50:50.894Z,24.17
2023-04-16T00:51:50.954Z,24.19
2023-04-16T00:52:50.989Z,24.17
2023-04-16T00:53:51.025Z,24.17
2023-04-16T00:54:51.068Z,24.17
2023-04-16T00:55:51.100Z,24.18
2023-04-16T00:56:51.147Z,24.19
2023-04-16T00:57:51.180Z,24.17
2023-04-16T00:58:51.225Z,24.18
2023-04-16T00:59:51.257Z,24.18
2023-04-16T01:00:51.296Z,24.18
2023-04-16T01:01:51.414Z,24.18
2023-04-16T01:02:51.500Z,24.17
2023-04-16T01:03:51.515Z,24.18
2023-04-16T01:04:51.415Z,24.19
2023-04-16T01:05:51.451Z,24.17
2023-04-16T01:06:51.487Z,24.19
2023-04-16T01:07:51.529Z,24.19
2023-04-16T01:08:51.567Z,24.19
2023-04-16T01:09:51.588Z,24.19
2023-04-16T01:10:51.639Z,24.17
2023-04-16T01:11:51.669Z,24.20
2023-04-16T01:12:51.696Z,24.18
2023-04-16T01:13:51.752Z,24.19
2023-04-16T01:14:51.804Z,24.19
2023-04-16T01:15:51.921Z,24.19
2023-04-16T01:16:51.942Z,24.20
2023-04-16T01:17:52.109Z,24.20
2023-04-16T01:18:52.050Z,24.19
2023-04-16T01:19:52.086Z,24.22
2023-04-16T01:20:52.130Z,24.23
2023-04-16T01:21:52.137Z,24.18
2023-04-16T01:22:52.183Z,24.22
2023-04-16T01:23:52.224Z,24.23
2023-04-16T01:24:52.262Z,24.23
2023-04-16T01:25:52.275Z,24.22
2023-04-16T01:26:52.356Z,24.24
2023-04-16T01:27:52.363Z,24.23
2023-04-16T01:28:52.412Z,24.22
2023-04-16T01:29:52.494Z,24.25
2023-04-16T01:30:52.536Z,24.27
2023-04-16T01:31:52.682Z,24.25
2023-04-16T01:32:52.694Z,24.26
2023-04-16T01:33:52.717Z,24.25
2023-04-16T01:34:52.766Z,24.26
2023-04-16T01:35:52.848Z,24.26
2023-04-16T01:36:52.911Z,24.27
2023-04-16T01:37:52.970Z,24.28
2023-04-16T01:38:53.033Z,24.29
2023-04-16T01:39:53.098Z,24.29
2023-04-16T01:40:53.120Z,24.29
2023-04-16T01:41:53.190Z,24.28
2023-04-16T01:42:53.254Z,24.30
2023-04-16T01:43:53.328Z,24.32
2023-04-16T01:44:53.388Z,24.32
2023-04-16T01:45:53.457Z,24.31
2023-04-16T01:46:53.609Z,24.31
2023-04-16T01:47:53.629Z,24.32
2023-04-16T01:48:53.635Z,24.33
2023-04-16T01:49:53.688Z,24.33
2023-04-16T01:50:53.754Z,24.34
2023-04-16T01:51:53.767Z,24.33
2023-04-16T01:52:53.822Z,24.33
2023-04-16T01:53:53.858Z,24.34
2023-04-16T01:54:53.898Z,24.35
2023-04-16T01:55:53.914Z,24.37
2023-04-16T01:56:54.000Z,24.35
2023-04-16T01:57:54.025Z,24.37
2023-04-16T01:58:54.053Z,24.38
2023-04-16T01:59:54.094Z,24.38
2023-04-16T02:00:54.179Z,24.36
2023-04-16T02:01:54.267Z,24.36
2023-04-16T02:02:54.410Z,24.37
2023-04-16T02:03:54.424Z,24.40
2023-04-16T02:04:54.316Z,24.39
2023-04-16T02:05:54.401Z,24.39
2023-04-16T02:06:54.450Z,24.41
2023-04-16T02:07:54.496Z,24.42
2023-04-16T02:08:54.529Z,24.40
2023-04-16T02:09:54.630Z,24.41
2023-04-16T02:10:54.632Z,24.41
2023-04-16T02:11:54.702Z,24.42
2023-04-16T02:12:54.730Z,24.42
2023-04-16T02:13:54.784Z,24.43
2023-04-16T02:14:54.828Z,24.43
2023-04-16T02:15:54.907Z,24.44
2023-04-16T02:16:55.016Z,24.47
2023-04-16T02:17:55.073Z,24.44
2023-04-16T02:18:55.079Z,24.45
2023-04-16T02:19:55.152Z,24.47
2023-04-16T02:20:55.198Z,24.46
2023-04-16T02:21:55.238Z,24.46
2023-04-16T02:22:55.287Z,24.45
2023-04-16T02:23:55.353Z,24.46
2023-04-16T02:24:55.399Z,24.47
2023-04-16T02:25:55.455Z,24.48
2023-04-16T02:26:55.510Z,24.48
2023-04-16T02:27:55.554Z,24.47
2023-04-16T02:28:55.580Z,24.46
2023-04-16T02:29:55.626Z,24.47
2023-04-16T02:30:55.678Z,24.48
2023-04-16T02:31:55.772Z,24.48
2023-04-16T02:32:55.819Z,24.48
2023-04-16T02:33:55.857Z,24.50
2023-04-16T02:34:55.898Z,24.50
2023-04-16T02:35:55.942Z,24.49
2023-04-16T02:36:56.010Z,24.50
2023-04-16T02:37:56.091Z,24.51
2023-04-16T02:38:56.144Z,24.50
2023-04-16T02:39:56.218Z,24.51
2023-04-16T02:40:56.282Z,24.51
2023-04-16T02:41:56.344Z,24.52
2023-04-16T02:42:56.377Z,24.51
2023-04-16T02:43:56.422Z,24.51
2023-04-16T02:44:56.474Z,24.52
2023-04-16T02:45:56.547Z,24.51
2023-04-16T02:46:56.585Z,24.53
2023-04-16T02:47:56.673Z,24.52
2023-04-16T02:48:56.653Z,24.53
2023-04-16T02:49:56.702Z,24.56
2023-04-16T02:50:56.794Z,24.54
2023-04-16T02:51:56.866Z,24.54
2023-04-16T02:52:56.880Z,24.55
2023-04-16T02:53:56.922Z,24.54
2023-04-16T02:54:56.970Z,24.52
2023-04-16T02:55:57.036Z,24.55
2023-04-16T02:56:57.126Z,24.56
2023-04-16T02:57:57.148Z,24.56
2023-04-16T02:58:57.201Z,24.57
2023-04-16T02:59:57.265Z,24.57
2023-04-16T03:00:57.341Z,24.60
2023-04-16T03:01:57.387Z,24.57
2023-04-16T03:02:57.483Z,24.58
2023-04-16T03:03:57.484Z,24.60
2023-04-16T03:04:57.522Z,24.57
2023-04-16T03:05:57.528Z,24.58
2023-04-16T03:06:57.571Z,24.61
2023-04-16T03:07:57.619Z,24.61
2023-04-16T03:08:57.679Z,24.60
2023-04-16T03:09:57.717Z,24.61
2023-04-16T03:10:57.756Z,24.59
2023-04-16T03:11:57.875Z,24.62
2023-04-16T03:12:57.865Z,24.61
2023-04-16T03:13:57.940Z,24.62
2023-04-16T03:14:57.945Z,24.63
2023-04-16T03:15:58.085Z,24.63
2023-04-16T03:16:58.055Z,24.62
2023-04-16T03:17:58.172Z,24.63
2023-04-16T03:18:58.123Z,24.65
2023-04-16T03:19:58.200Z,24.65
2023-04-16T03:20:58.228Z,24.65
2023-04-16T03:21:58.276Z,24.66
2023-04-16T03:22:58.343Z,24.65
2023-04-16T03:23:58.374Z,24.66
2023-04-16T03:24:58.401Z,24.66
2023-04-16T03:25:58.469Z,24.65
2023-04-16T03:26:58.498Z,24.66
2023-04-16T03:27:58.544Z,24.66
2023-04-16T03:28:58.588Z,24.67
2023-04-16T03:29:58.612Z,24.66
2023-04-16T03:30:58.687Z,24.67
2023-04-16T03:31:58.712Z,24.68
2023-04-16T03:32:58.829Z,24.70
2023-04-16T03:33:58.802Z,24.69
2023-04-16T03:34:58.876Z,24.69
2023-04-16T03:35:58.886Z,24.69
2023-04-16T03:36:58.970Z,24.69
2023-04-16T03:37:58.992Z,24.69
2023-04-16T03:38:59.042Z,24.71
2023-04-16T03:39:59.087Z,24.70
2023-04-16T03:40:59.111Z,24.72
2023-04-16T03:41:59.137Z,24.72
2023-04-16T03:42:59.192Z,24.70
2023-04-16T03:43:59.255Z,24.72
2023-04-16T03:44:59.304Z,24.75
2023-04-16T03:45:59.407Z,24.73
2023-04-16T03:46:59.433Z,24.72
2023-04-16T03:48:00.248Z,24.73
2023-04-16T03:48:59.458Z,24.73
2023-04-16T03:49:59.531Z,24.74
2023-04-16T03:50:59.570Z,24.74
2023-04-16T03:51:59.599Z,24.74
2023-04-16T03:52:59.615Z,24.76
2023-04-16T03:53:59.686Z,24.75
2023-04-16T03:54:59.746Z,24.77
2023-04-16T03:55:59.809Z,24.76
2023-04-16T03:56:59.830Z,24.76
2023-04-16T03:57:59.883Z,24.77
2023-04-16T03:58:59.942Z,24.78
2023-04-16T03:59:59.997Z,24.77
2023-04-16T04:01:00.026Z,24.79
2023-04-16T04:02:00.196Z,24.78
2023-04-16T04:03:00.279Z,24.79
2023-04-16T04:04:00.328Z,24.76
2023-04-16T04:05:00.343Z,24.78
2023-04-16T04:06:00.237Z,24.78
2023-04-16T04:07:00.286Z,24.79
2023-04-16T04:08:00.337Z,24.79
2023-04-16T04:09:00.373Z,24.78
2023-04-16T04:10:00.409Z,24.81
2023-04-16T04:11:00.474Z,24.81
2023-04-16T04:12:00.531Z,24.79
2023-04-16T04:13:00.599Z,24.81
2023-04-16T04:14:00.673Z,24.80
2023-04-16T04:15:00.705Z,24.81
2023-04-16T04:16:00.777Z,24.83
2023-04-16T04:17:00.797Z,24.81
2023-04-16T04:18:00.840Z,24.83
2023-04-16T04:19:00.876Z,24.83
2023-04-16T04:20:01.866Z,24.82
2023-04-16T04:21:00.958Z,24.85
2023-04-16T04:22:01.014Z,24.85
2023-04-16T04:23:01.061Z,24.82
2023-04-16T04:24:01.084Z,24.83
2023-04-16T04:25:01.121Z,24.84
2023-04-16T04:26:01.206Z,24.84
2023-04-16T04:27:01.236Z,24.86
2023-04-16T04:28:01.261Z,24.88
2023-04-16T04:29:01.294Z,24.86
2023-04-16T04:30:01.406Z,24.86
2023-04-16T04:31:01.409Z,24.88
2023-04-16T04:32:01.524Z,24.88
2023-04-16T04:33:01.543Z,24.87
2023-04-16T04:34:01.572Z,24.88
2023-04-16T04:35:01.610Z,24.88
2023-04-16T04:36:01.709Z,24.89
2023-04-16T04:37:01.741Z,24.88
2023-04-16T04:38:02.553Z,24.91
2023-04-16T04:39:01.867Z,24.91
2023-04-16T04:40:01.899Z,24.89
2023-04-16T04:41:02.063Z,24.90
2023-04-16T04:42:01.955Z,24.89
2023-04-16T04:43:02.065Z,24.91
2023-04-16T04:44:02.060Z,24.91
2023-04-16T04:45:02.085Z,24.92
2023-04-16T04:46:02.224Z,24.90
2023-04-16T04:47:02.156Z,24.90
2023-04-16T04:48:02.244Z,24.91
2023-04-16T04:49:02.271Z,24.91
2023-04-16T04:50:02.315Z,24.94
2023-04-16T04:51:04.734Z,24.93
2023-04-16T04:52:02.332Z,24.92
2023-04-16T04:53:02.322Z,24.94
2023-04-16T04:54:02.340Z,24.93
2023-04-16T04:55:02.310Z,24.94
2023-04-16T04:56:12.193Z,24.93
2023-04-16T04:57:03.307Z,24.97
2023-04-16T04:58:02.301Z,24.95
2023-04-16T04:59:02.759Z,24.97
2023-04-16T05:00:02.271Z,24.96
2023-04-16T05:01:02.400Z,24.98
2023-04-16T05:02:02.304Z,24.94
2023-04-16T05:03:02.341Z,24.96
2023-04-16T05:04:02.337Z,24.94
2023-04-16T05:05:02.297Z,24.98
2023-04-16T05:06:02.245Z,24.93
2023-04-16T05:07:02.253Z,24.94
2023-04-16T05:08:02.255Z,24.96
2023-04-16T05:09:02.290Z,24.96
2023-04-16T05:10:02.275Z,24.97
2023-04-16T05:11:02.281Z,24.95
2023-04-16T05:12:02.306Z,24.97
2023-04-16T05:13:02.332Z,24.95
2023-04-16T05:14:02.375Z,24.97
2023-04-16T05:15:02.392Z,24.97
2023-04-16T05:16:02.445Z,24.97
2023-04-16T05:17:02.535Z,24.99
2023-04-16T05:18:02.593Z,24.98
2023-04-16T05:19:02.577Z,24.97
2023-04-16T05:20:02.593Z,24.98
2023-04-16T05:21:02.654Z,24.98
2023-04-16T05:22:02.692Z,24.96
2023-04-16T05:23:02.760Z,24.98
2023-04-16T05:24:02.792Z,24.96
2023-04-16T05:25:02.830Z,24.97
2023-04-16T05:26:02.866Z,24.99
2023-04-16T05:27:02.912Z,24.99
2023-04-16T05:28:02.957Z,24.98
2023-04-16T05:29:03.022Z,24.98
2023-04-16T05:30:03.043Z,24.97
2023-04-16T05:31:03.160Z,24.97
2023-04-16T05:32:03.154Z,24.98
2023-04-16T05:33:03.206Z,25.02
2023-04-16T05:34:03.260Z,24.98
2023-04-16T05:35:03.322Z,24.98
2023-04-16T05:36:03.350Z,24.99
2023-04-16T05:37:03.394Z,24.99
2023-04-16T05:38:03.440Z,24.99
2023-04-16T05:39:03.536Z,25.01
2023-04-16T05:40:03.502Z,24.98
2023-04-16T05:41:03.563Z,24.99
2023-04-16T05:42:03.600Z,24.99
2023-04-16T05:43:03.640Z,25.00
2023-04-16T05:44:03.718Z,24.99
2023-04-16T05:45:03.745Z,24.99
2023-04-16T05:46:03.841Z,24.98
2023-04-16T05:47:03.837Z,24.98
2023-04-16T05:48:03.871Z,24.99
2023-04-16T05:49:03.906Z,24.99
2023-04-16T05:50:03.954Z,24.99
2023-04-16T05:51:03.998Z,24.98
2023-04-16T05:52:04.022Z,24.98
2023-04-16T05:53:04.084Z,24.97
2023-04-16T05:54:04.130Z,25.00
2023-04-16T05:55:04.158Z,24.98
2023-04-16T05:56:04.276Z,24.98
2023-04-16T05:57:04.361Z,25.00
2023-04-16T05:58:04.374Z,24.99
2023-04-16T05:59:04.354Z,24.98
2023-04-16T06:00:04.426Z,24.99
2023-04-16T06:01:04.458Z,25.00
2023-04-16T06:02:04.550Z,24.98
2023-04-16T06:03:04.713Z,24.99
2023-04-16T06:04:04.658Z,25.01
2023-04-16T06:05:04.699Z,25.02
2023-04-16T06:06:04.704Z,25.01
2023-04-16T06:07:04.702Z,25.02
2023-04-16T06:08:04.758Z,25.02
2023-04-16T06:09:04.789Z,25.03
2023-04-16T06:10:04.821Z,25.01
2023-04-16T06:11:04.870Z,25.02
2023-04-16T06:12:04.924Z,25.02
2023-04-16T06:13:04.965Z,25.00
2023-04-16T06:14:05.029Z,25.02
2023-04-16T06:15:05.072Z,25.02
2023-04-16T06:16:05.157Z,24.99
2023-04-16T06:17:05.211Z,25.00
2023-04-16T06:18:05.305Z,25.02
2023-04-16T06:19:05.287Z,24.99
2023-04-16T06:20:05.297Z,25.02
2023-04-16T06:21:05.344Z,25.01
2023-04-16T06:22:05.416Z,25.01
2023-04-16T06:23:05.499Z,25.01
2023-04-16T06:24:05.559Z,25.00
2023-04-16T06:25:05.598Z,25.01
2023-04-16T06:26:05.664Z,25.02
2023-04-16T06:27:05.724Z,25.01
2023-04-16T06:28:05.806Z,25.02
2023-04-16T06:29:05.854Z,25.00
2023-04-16T06:30:05.924Z,24.99
2023-04-16T06:31:05.999Z,24.99
2023-04-16T06:32:06.058Z,24.99
2023-04-16T06:33:06.124Z,24.98
2023-04-16T06:34:06.156Z,25.02
2023-04-16T06:35:06.210Z,25.00
2023-04-16T06:36:06.272Z,24.98
2023-04-16T06:37:07.192Z,24.97
2023-04-16T06:38:06.343Z,25.00
2023-04-16T06:39:06.335Z,24.97
2023-04-16T06:40:06.345Z,24.98
2023-04-16T06:41:06.309Z,24.97
2023-04-16T06:42:06.322Z,24.98
2023-04-16T06:43:06.307Z,24.97
2023-04-16T06:44:06.316Z,24.96
2023-04-16T06:45:06.336Z,24.97
2023-04-16T06:46:06.295Z,24.97
2023-04-16T06:47:06.311Z,24.96
2023-04-16T06:48:06.333Z,24.95
2023-04-16T06:49:06.285Z,24.97
2023-04-16T06:50:06.263Z,24.93
2023-04-16T06:51:06.254Z,24.92
2023-04-16T06:52:06.256Z,24.92
2023-04-16T06:53:06.249Z,24.92
2023-04-16T06:54:06.243Z,24.93
2023-04-16T06:55:06.224Z,24.91
2023-04-16T06:56:06.209Z,24.90
2023-04-16T06:57:06.206Z,24.89
2023-04-16T06:58:06.201Z,24.88
2023-04-16T06:59:06.193Z,24.89
2023-04-16T07:00:06.192Z,24.91
2023-04-16T07:01:06.236Z,24.87
2023-04-16T07:02:06.241Z,24.90
2023-04-16T07:03:06.307Z,24.90
2023-04-16T07:04:06.239Z,24.88
2023-04-16T07:05:06.181Z,24.88
2023-04-16T07:06:06.160Z,24.90
2023-04-16T07:07:06.163Z,24.88
2023-04-16T07:08:06.139Z,24.89
2023-04-16T07:09:06.151Z,24.89
2023-04-16T07:10:06.136Z,24.86
2023-04-16T07:11:06.119Z,24.86
2023-04-16T07:12:06.153Z,24.85
2023-04-16T07:13:06.109Z,24.85
2023-04-16T07:14:06.104Z,24.84
2023-04-16T07:15:06.104Z,24.83
2023-04-16T07:16:06.131Z,24.81
2023-04-16T07:17:06.086Z,24.83
2023-04-16T07:18:06.112Z,24.83
2023-04-16T07:19:06.099Z,24.84
2023-04-16T07:20:06.069Z,24.83
2023-04-16T07:21:06.071Z,24.84
2023-04-16T07:22:06.063Z,24.84
2023-04-16T07:23:06.040Z,24.84
2023-04-16T07:24:06.036Z,24.84
2023-04-16T07:25:06.037Z,24.86
2023-04-16T07:26:06.038Z,24.83
2023-04-16T07:27:06.014Z,24.83
2023-04-16T07:28:06.035Z,24.81
2023-04-16T07:29:06.026Z,24.81
2023-04-16T07:30:06.003Z,24.80
2023-04-16T07:31:06.011Z,24.78
2023-04-16T07:32:06.029Z,24.82
2023-04-16T07:33:06.090Z,24.78
2023-04-16T07:34:06.099Z,24.81
2023-04-16T07:35:06.172Z,24.78
2023-04-16T07:36:06.175Z,24.79
2023-04-16T07:37:06.172Z,24.79
2023-04-16T07:38:06.183Z,24.79
2023-04-16T07:39:06.171Z,24.80
2023-04-16T07:40:06.221Z,24.77
2023-04-16T07:41:06.259Z,24.79
2023-04-16T07:42:06.271Z,24.80
2023-04-16T07:43:06.273Z,24.79
2023-04-16T07:44:06.258Z,24.77
2023-04-16T07:45:06.267Z,24.77
2023-04-16T07:46:06.326Z,24.78
2023-04-16T07:47:06.359Z,24.79
2023-04-16T07:48:06.251Z,24.83
2023-04-16T07:49:06.264Z,24.83
2023-04-16T07:50:06.247Z,24.84
2023-04-16T07:51:06.267Z,24.83
2023-04-16T07:52:06.313Z,24.84
2023-04-16T07:53:06.345Z,24.84
2023-04-16T07:54:06.345Z,24.84
2023-04-16T07:55:06.350Z,24.84
2023-04-16T07:56:06.376Z,24.85
2023-04-16T07:57:06.427Z,24.84
2023-04-16T07:58:06.460Z,24.85
2023-04-16T07:59:19.190Z,24.87
2023-04-16T08:00:07.493Z,24.88
2023-04-16T08:01:06.485Z,24.89
2023-04-16T08:02:06.512Z,24.89
2023-04-16T08:03:06.643Z,24.86
2023-04-16T08:04:06.607Z,24.87
2023-04-16T08:05:06.484Z,24.85
2023-04-16T08:06:06.452Z,24.85
2023-04-16T08:07:06.464Z,24.84
2023-04-16T08:08:06.473Z,24.87
2023-04-16T08:09:06.455Z,24.87
2023-04-16T08:10:06.434Z,24.85
2023-04-16T08:11:06.441Z,24.86
2023-04-16T08:12:06.416Z,24.84
2023-04-16T08:13:06.416Z,24.86
2023-04-16T08:14:06.396Z,24.87
2023-04-16T08:15:06.418Z,24.86
2023-04-16T08:16:06.487Z,24.86
2023-04-16T08:17:06.405Z,24.89
2023-04-16T08:18:06.494Z,24.89
2023-04-16T08:19:06.436Z,24.90
2023-04-16T08:20:06.448Z,24.89
2023-04-16T08:21:06.441Z,24.90
2023-04-16T08:22:06.462Z,24.88
2023-04-16T08:23:06.460Z,24.89
2023-04-16T08:24:06.479Z,24.88
2023-04-16T08:25:06.523Z,24.90
2023-04-16T08:26:06.524Z,24.87
2023-04-16T08:27:17.911Z,24.91
2023-04-16T08:28:07.555Z,24.90
2023-04-16T08:29:06.544Z,24.91
2023-04-16T08:30:06.528Z,24.92
2023-04-16T08:31:06.669Z,24.91
2023-04-16T08:32:06.518Z,24.91
2023-04-16T08:33:06.521Z,24.93
2023-04-16T08:34:06.521Z,24.93
2023-04-16T08:35:06.509Z,24.94
2023-04-16T08:36:06.500Z,24.93
2023-04-16T08:37:06.536Z,24.93
2023-04-16T08:38:06.511Z,24.93
2023-04-16T08:39:06.478Z,24.89
2023-04-16T08:40:06.462Z,24.88
2023-04-16T08:41:06.487Z,24.86
2023-04-16T08:42:06.520Z,24.87
2023-04-16T08:43:06.595Z,24.85
2023-04-16T08:44:06.641Z,24.85
2023-04-16T08:45:06.722Z,24.85
2023-04-16T08:46:06.833Z,24.82
2023-04-16T08:47:06.862Z,24.81
2023-04-16T08:48:06.902Z,24.78
2023-04-16T08:49:06.945Z,24.78
2023-04-16T08:50:06.995Z,24.76
2023-04-16T08:51:07.042Z,24.75
2023-04-16T08:52:07.089Z,24.77
2023-04-16T08:53:07.198Z,24.77
2023-04-16T08:54:07.215Z,24.77
2023-04-16T08:55:07.226Z,24.78
2023-04-16T08:56:07.234Z,24.79
2023-04-16T08:57:07.229Z,24.79
2023-04-16T08:58:07.248Z,24.81
2023-04-16T08:59:07.414Z,24.82
2023-04-16T09:00:07.273Z,24.83
2023-04-16T09:01:07.378Z,24.85
2023-04-16T09:02:07.518Z,24.87
2023-04-16T09:03:07.540Z,24.87
2023-04-16T09:04:07.691Z,24.90
2023-04-16T09:05:07.599Z,24.91
2023-04-16T09:06:07.667Z,24.91
2023-04-16T09:07:07.690Z,24.94
2023-04-16T09:08:07.716Z,24.94
2023-04-16T09:09:07.856Z,24.94
2023-04-16T09:10:07.823Z,24.97
2023-04-16T09:11:07.885Z,24.96
2023-04-16T09:12:07.946Z,24.98
2023-04-16T09:13:07.986Z,24.98
2023-04-16T09:14:08.067Z,24.98
2023-04-16T09:15:08.118Z,24.97
2023-04-16T09:16:08.326Z,24.99
2023-04-16T09:17:08.247Z,24.96
2023-04-16T09:18:08.280Z,24.97
2023-04-16T09:19:08.469Z,24.96
2023-04-16T09:20:08.338Z,24.96
2023-04-16T09:21:08.428Z,24.97
2023-04-16T09:22:08.488Z,24.96
2023-04-16T09:23:08.540Z,24.95
2023-04-16T09:24:08.577Z,24.96
2023-04-16T09:25:08.652Z,24.95
2023-04-16T09:26:08.653Z,24.96
2023-04-16T09:27:08.686Z,24.98
2023-04-16T09:28:08.673Z,24.97
2023-04-16T09:29:08.883Z,24.97
2023-04-16T09:30:08.711Z,24.97
2023-04-16T09:31:08.722Z,24.97
2023-04-16T09:32:08.792Z,24.97
2023-04-16T09:33:08.737Z,24.96
2023-04-16T09:34:08.769Z,24.98
2023-04-16T09:35:08.777Z,24.96
2023-04-16T09:36:08.858Z,24.98
2023-04-16T09:37:08.895Z,24.96
2023-04-16T09:38:08.893Z,24.96
2023-04-16T09:39:09.110Z,24.96
2023-04-16T09:40:08.935Z,24.96
2023-04-16T09:41:09.021Z,24.92
2023-04-16T09:42:09.076Z,24.93
2023-04-16T09:43:09.127Z,24.93
2023-04-16T09:44:09.174Z,24.93
2023-04-16T09:45:09.265Z,24.93
2023-04-16T09:46:09.464Z,24.91
2023-04-16T09:47:09.394Z,24.91
2023-04-16T09:48:09.427Z,24.93
2023-04-16T09:49:09.765Z,24.90
2023-04-16T09:50:11.283Z,24.92
2023-04-16T09:51:09.558Z,24.89
2023-04-16T09:52:09.552Z,24.89
2023-04-16T09:53:09.534Z,24.88
2023-04-16T09:54:09.550Z,24.89
2023-04-16T09:55:09.527Z,24.88
2023-04-16T09:56:09.512Z,24.88
2023-04-16T09:57:09.505Z,24.88
2023-04-16T09:58:09.498Z,24.87
2023-04-16T09:59:09.745Z,24.86
2023-04-16T10:00:09.516Z,24.86
2023-04-16T10:01:09.523Z,24.84
2023-04-16T10:02:15.424Z,24.84
2023-04-16T10:03:10.575Z,24.84
2023-04-16T10:04:09.517Z,24.83
2023-04-16T10:05:09.466Z,24.81
2023-04-16T10:06:09.441Z,24.79
2023-04-16T10:07:09.469Z,24.78
2023-04-16T10:08:09.428Z,24.77
2023-04-16T10:09:09.625Z,24.74
2023-04-16T10:10:09.435Z,24.75
2023-04-16T10:11:09.405Z,24.75
2023-04-16T10:12:09.409Z,24.73
2023-04-16T10:13:09.412Z,24.73
2023-04-16T10:14:09.392Z,24.71
2023-04-16T10:15:09.406Z,24.71
2023-04-16T10:16:09.398Z,24.67
2023-04-16T10:17:09.543Z,24.66
2023-04-16T10:18:09.422Z,24.65
2023-04-16T10:19:09.626Z,24.65
2023-04-16T10:20:09.376Z,24.63
2023-04-16T10:21:09.382Z,24.61
2023-04-16T10:22:09.405Z,24.61
2023-04-16T10:23:09.440Z,24.60
2023-04-16T10:24:09.472Z,24.58
2023-04-16T10:25:09.513Z,24.58
2023-04-16T10:26:09.522Z,24.56
2023-04-16T10:27:09.552Z,24.57
2023-04-16T10:28:09.561Z,24.55
2023-04-16T10:29:09.939Z,24.55
2023-04-16T10:30:09.595Z,24.53
2023-04-16T10:31:09.803Z,24.50
2023-04-16T10:32:09.633Z,24.52
2023-04-16T10:33:09.753Z,24.49
2023-04-16T10:34:09.680Z,24.50
2023-04-16T10:35:09.702Z,24.49
2023-04-16T10:36:09.748Z,24.48
2023-04-16T10:37:09.729Z,24.48
2023-04-16T10:38:09.719Z,24.44
2023-04-16T10:39:09.958Z,24.46
2023-04-16T10:40:09.754Z,24.47
2023-04-16T10:41:09.761Z,24.47
2023-04-16T10:42:09.828Z,24.46
2023-04-16T10:43:09.821Z,24.48
2023-04-16T10:44:09.995Z,24.49
2023-04-16T10:45:09.843Z,24.51
2023-04-16T10:46:09.875Z,24.50
2023-04-16T10:47:09.917Z,24.51
2023-04-16T10:48:10.063Z,24.50
2023-04-16T10:49:10.093Z,24.50
2023-04-16T10:50:09.938Z,24.49
2023-04-16T10:51:09.960Z,24.49
2023-04-16T10:52:10.003Z,24.49
2023-04-16T10:53:10.085Z,24.47
2023-04-16T10:54:10.126Z,24.47
2023-04-16T10:55:10.184Z,24.48
2023-04-16T10:56:10.266Z,24.49
2023-04-16T10:57:10.285Z,24.48
2023-04-16T10:58:10.297Z,24.45
2023-04-16T10:59:10.665Z,24.46
2023-04-16T11:00:10.340Z,24.45
2023-04-16T11:01:10.479Z,24.44
2023-04-16T11:02:10.527Z,24.42
2023-04-16T11:03:10.543Z,24.45
2023-04-16T11:04:10.666Z,24.43
2023-04-16T11:05:10.548Z,24.41
2023-04-16T11:06:10.589Z,24.42
2023-04-16T11:07:10.621Z,24.42
2023-04-16T11:08:10.627Z,24.41
2023-04-16T11:09:10.978Z,24.38
2023-04-16T11:10:10.689Z,24.38
2023-04-16T11:11:10.701Z,24.37
2023-04-16T11:12:10.729Z,24.37
2023-04-16T11:13:10.727Z,24.37
2023-04-16T11:14:10.740Z,24.35
2023-04-16T11:15:10.739Z,24.37
2023-04-16T11:16:10.789Z,24.36
2023-04-16T11:17:10.752Z,24.37
2023-04-16T11:18:10.765Z,24.36
2023-04-16T11:19:10.824Z,24.38
2023-04-16T11:20:19.578Z,24.37
2023-04-16T11:21:11.762Z,24.37
2023-04-16T11:22:10.758Z,24.34
2023-04-16T11:23:10.739Z,24.37
2023-04-16T11:24:10.716Z,24.36
2023-04-16T11:25:10.716Z,24.35
2023-04-16T11:26:10.723Z,24.37
2023-04-16T11:27:10.739Z,24.34
2023-04-16T11:28:10.711Z,24.37
2023-04-16T11:29:10.985Z,24.35
2023-04-16T11:30:10.695Z,24.37
2023-04-16T11:31:10.703Z,24.37
2023-04-16T11:32:10.687Z,24.36
2023-04-16T11:33:10.667Z,24.37
2023-04-16T11:34:10.649Z,24.37
2023-04-16T11:35:10.662Z,24.35
2023-04-16T11:36:10.652Z,24.37
2023-04-16T11:37:10.658Z,24.38
2023-04-16T11:38:10.652Z,24.37
2023-04-16T11:39:10.829Z,24.39
2023-04-16T11:40:10.675Z,24.39
2023-04-16T11:41:10.677Z,24.39
2023-04-16T11:42:10.744Z,24.39
2023-04-16T11:43:10.705Z,24.37
2023-04-16T11:44:10.732Z,24.40
2023-04-16T11:45:10.762Z,24.39
2023-04-16T11:46:24.509Z,24.38
2023-04-16T11:47:11.829Z,24.39
2023-04-16T11:48:11.297Z,24.39
2023-04-16T11:49:10.935Z,24.39
2023-04-16T11:50:10.767Z,24.41
2023-04-16T11:51:10.767Z,24.39
2023-04-16T11:52:10.748Z,24.41
2023-04-16T11:53:10.761Z,24.41
2023-04-16T11:54:12.155Z,24.40
2023-04-16T11:55:10.741Z,24.42
2023-04-16T11:56:10.734Z,24.42
2023-04-16T11:57:10.714Z,24.42
2023-04-16T11:58:10.739Z,24.44
2023-04-16T11:59:11.099Z,24.44
2023-04-16T12:00:10.755Z,24.44
2023-04-16T12:01:10.699Z,24.43
2023-04-16T12:02:10.720Z,24.44
2023-04-16T12:03:10.789Z,24.43
2023-04-16T12:04:10.860Z,24.43
2023-04-16T12:05:10.702Z,24.43
2023-04-16T12:06:10.665Z,24.44
2023-04-16T12:07:10.676Z,24.45
2023-04-16T12:08:10.707Z,24.45
2023-04-16T12:09:10.814Z,24.47
2023-04-16T12:10:10.731Z,24.47
2023-04-16T12:11:10.781Z,24.47
2023-04-16T12:12:10.794Z,24.49
2023-04-16T12:13:10.825Z,24.50
2023-04-16T12:14:10.860Z,24.51
2023-04-16T12:15:10.906Z,24.52
2023-04-16T12:16:10.961Z,24.53
2023-04-16T12:17:11.073Z,24.53
2023-04-16T12:18:11.068Z,24.56
2023-04-16T12:19:11.213Z,24.56
2023-04-16T12:20:11.177Z,24.56
2023-04-16T12:21:11.120Z,24.57
2023-04-16T12:22:11.158Z,24.60
2023-04-16T12:23:11.171Z,24.58
2023-04-16T12:24:11.224Z,24.60
2023-04-16T12:25:11.281Z,24.60
2023-04-16T12:26:11.283Z,24.60
2023-04-16T12:27:11.342Z,24.62
2023-04-16T12:28:11.353Z,24.61
2023-04-16T12:29:11.629Z,24.63
2023-04-16T12:30:11.641Z,24.61
2023-04-16T12:31:11.485Z,24.62
2023-04-16T12:32:11.496Z,24.62
2023-04-16T12:33:11.599Z,24.61
2023-04-16T12:34:11.582Z,24.61
2023-04-16T12:35:11.609Z,24.61
2023-04-16T12:36:11.665Z,24.61
2023-04-16T12:37:11.676Z,24.64
2023-04-16T12:38:11.730Z,24.62
2023-04-16T12:39:11.977Z,24.64
2023-04-16T12:40:11.815Z,24.61
2023-04-16T12:41:11.808Z,24.64
2023-04-16T12:42:11.838Z,24.64
2023-04-16T12:43:11.873Z,24.67
2023-04-16T12:44:11.902Z,24.64
2023-04-16T12:45:11.961Z,24.65
2023-04-16T12:46:12.036Z,24.66
2023-04-16T12:47:12.030Z,24.65
2023-04-16T12:48:12.054Z,24.68
2023-04-16T12:49:12.169Z,24.69
2023-04-16T12:50:12.137Z,24.66
2023-04-16T12:51:12.183Z,24.69
2023-04-16T12:52:12.223Z,24.72
2023-04-16T12:53:12.291Z,24.68